createdAt,value
2023-03-10T00:01:23.869Z,96.09
2023-03-10T00:03:52.265Z,96.05
2023-03-10T00:06:25.730Z,95.47
2023-03-10T00:08:54.355Z,95.05
2023-03-10T00:11:24.361Z,95.90
2023-03-10T00:13:53.215Z,95.37
2023-03-10T00:16:24.683Z,94.91
2023-03-10T00:18:54.152Z,95.26
2023-03-10T00:21:25.444Z,95.59
2023-03-10T00:23:54.584Z,95.16
2023-03-10T00:26:27.897Z,96.17
2023-03-10T00:28:56.875Z,95.33
2023-03-10T00:31:27.364Z,96.11
2023-03-10T00:33:57.750Z,96.52
2023-03-10T00:36:29.903Z,96.52
2023-03-10T00:39:04.694Z,96.77
2023-03-10T00:41:36.456Z,96.21
2023-03-10T00:44:05.544Z,97.05
2023-03-10T00:46:34.648Z,96.97
2023-03-10T00:49:03.520Z,97.34
2023-03-10T00:51:31.900Z,96.56
2023-03-10T00:54:01.804Z,97.60
2023-03-10T00:56:31.688Z,97.37
2023-03-10T00:59:01.974Z,97.28
2023-03-10T01:01:33.665Z,97.52
2023-03-10T01:04:05.021Z,97.64
2023-03-10T01:06:34.002Z,96.88
2023-03-10T01:09:02.962Z,96.95
2023-03-10T01:11:32.051Z,96.88
2023-03-10T01:14:05.445Z,96.57
2023-03-10T01:16:34.033Z,96.74
2023-03-10T01:19:02.846Z,97.67
2023-03-10T01:21:33.944Z,97.57
2023-03-10T01:24:03.158Z,97.77
2023-03-10T01:26:32.485Z,98.06
2023-03-10T01:29:02.201Z,97.92
2023-03-10T01:31:30.865Z,97.47
2023-03-10T01:33:59.818Z,97.10
2023-03-10T01:36:29.594Z,97.26
2023-03-10T01:38:58.781Z,97.47
2023-03-10T01:41:27.466Z,97.25
2023-03-10T01:43:57.721Z,97.47
2023-03-10T01:46:50.740Z,98.46
2023-03-10T01:49:36.159Z,97.61
2023-03-10T01:52:09.849Z,98.59
2023-03-10T01:54:49.481Z,99.02
2023-03-10T01:57:21.482Z,99.13
2023-03-10T01:59:51.363Z,99.16
2023-03-10T02:02:23.077Z,99.03
2023-03-10T02:04:53.905Z,98.92
2023-03-10T02:07:27.598Z,98.67
2023-03-10T02:09:57.230Z,99.44
2023-03-10T02:12:25.780Z,99.76
2023-03-10T02:14:55.288Z,100.00
2023-03-10T02:17:27.426Z,100.00
2023-03-10T02:20:20.350Z,100.00
2023-03-10T02:22:49.552Z,100.00
2023-03-10T02:25:34.018Z,100.00
2023-03-10T02:28:04.662Z,100.00
2023-03-10T02:30:38.593Z,100.00
2023-03-10T02:33:10.929Z,100.00
2023-03-10T02:35:40.031Z,100.00
2023-03-10T02:38:13.340Z,100.00
2023-03-10T02:40:46.071Z,100.00
2023-03-10T02:43:23.383Z,100.00
2023-03-10T02:46:00.152Z,100.00
2023-03-10T02:48:32.980Z,100.00
2023-03-10T02:51:05.849Z,100.00
2023-03-10T02:53:34.501Z,100.00
2023-03-10T02:56:02.825Z,100.00
2023-03-10T02:58:35.304Z,100.00
2023-03-10T03:01:06.666Z,100.00
2023-03-10T03:03:39.878Z,100.00
2023-03-10T03:06:09.242Z,100.00
2023-03-10T03:08:37.871Z,100.00
2023-03-10T03:11:08.495Z,100.00
2023-03-10T03:13:38.163Z,100.00
2023-03-10T03:16:08.527Z,100.00
2023-03-10T03:18:38.360Z,100.00
2023-03-10T03:21:10.500Z,100.00
2023-03-10T03:23:40.394Z,100.00
2023-03-10T03:26:17.628Z,100.00
2023-03-10T03:28:47.388Z,100.00
2023-03-10T03:31:19.573Z,100.00
2023-03-10T03:33:49.439Z,100.00
2023-03-10T03:36:18.443Z,100.00
2023-03-10T03:38:47.661Z,100.00
2023-03-10T03:41:17.992Z,100.00
2023-03-10T03:43:47.709Z,100.00
2023-03-10T03:46:16.328Z,100.00
2023-03-10T03:48:45.239Z,100.00
2023-03-10T03:51:14.384Z,100.00
2023-03-10T03:53:44.216Z,100.00
2023-03-10T03:56:13.315Z,100.00
2023-03-10T03:58:45.119Z,100.00
2023-03-10T04:01:15.154Z,100.00
2023-03-10T04:03:48.294Z,100.00
2023-03-10T04:06:18.425Z,100.00
2023-03-10T04:08:50.037Z,100.00
2023-03-10T04:11:19.153Z,100.00
2023-03-10T04:13:49.770Z,100.00
2023-03-10T04:16:20.217Z,100.00
2023-03-10T04:18:49.025Z,100.00
2023-03-10T04:21:18.574Z,100.00
2023-03-10T04:23:49.785Z,100.00
2023-03-10T04:26:21.949Z,100.00
2023-03-10T04:28:51.163Z,100.00
2023-03-10T04:31:22.571Z,100.00
2023-03-10T04:33:52.781Z,100.00
2023-03-10T04:36:21.975Z,100.00
2023-03-10T04:38:54.793Z,100.00
2023-03-10T04:41:26.483Z,100.00
2023-03-10T04:43:55.258Z,100.00
2023-03-10T04:46:24.915Z,100.00
2023-03-10T04:48:55.779Z,100.00
2023-03-10T04:51:24.282Z,100.00
2023-03-10T04:53:54.818Z,100.00
2023-03-10T04:56:25.103Z,100.00
2023-03-10T04:58:54.857Z,100.00
2023-03-10T05:01:25.458Z,100.00
2023-03-10T05:04:00.222Z,100.00
2023-03-10T05:06:29.760Z,100.00
2023-03-10T05:09:06.488Z,100.00
2023-03-10T05:11:36.172Z,100.00
2023-03-10T05:14:05.022Z,100.00
2023-03-10T05:16:35.150Z,100.00
2023-03-10T05:19:03.497Z,100.00
2023-03-10T05:21:33.908Z,100.00
2023-03-10T05:24:03.284Z,100.00
2023-03-10T05:26:34.722Z,100.00
2023-03-10T05:29:04.043Z,100.00
2023-03-10T05:31:59.682Z,100.00
2023-03-10T05:34:33.235Z,100.00
2023-03-10T05:37:04.338Z,100.00
2023-03-10T05:39:33.090Z,100.00
2023-03-10T05:42:05.592Z,100.00
2023-03-10T05:44:36.220Z,100.00
2023-03-10T05:47:08.266Z,100.00
2023-03-10T05:49:38.734Z,100.00
2023-03-10T05:52:08.557Z,100.00
2023-03-10T05:54:39.523Z,100.00
2023-03-10T05:57:08.142Z,100.00
2023-03-10T05:59:37.585Z,100.00
2023-03-10T06:02:07.706Z,100.00
2023-03-10T06:04:36.232Z,100.00
2023-03-10T06:07:05.087Z,100.00
2023-03-10T06:09:34.184Z,100.00
2023-03-10T06:12:02.746Z,100.00
2023-03-10T06:14:31.271Z,100.00
2023-03-10T06:16:59.803Z,100.00
2023-03-10T06:19:29.385Z,100.00
2023-03-10T06:21:57.906Z,100.00
2023-03-10T06:24:26.518Z,100.00
2023-03-10T06:26:55.009Z,100.00
2023-03-10T06:29:23.514Z,100.00
2023-03-10T06:31:52.548Z,100.00
2023-03-10T06:34:21.162Z,100.00
2023-03-10T06:36:50.750Z,100.00
2023-03-10T06:39:19.277Z,100.00
2023-03-10T06:41:47.966Z,100.00
2023-03-10T06:44:18.816Z,100.00
2023-03-10T06:46:47.510Z,100.00
2023-03-10T06:49:15.764Z,100.00
2023-03-10T06:51:43.970Z,100.00
2023-03-10T06:54:13.574Z,100.00
2023-03-10T06:56:42.119Z,100.00
2023-03-10T06:59:10.862Z,100.00
2023-03-10T07:01:39.512Z,100.00
2023-03-10T07:04:08.177Z,100.00
2023-03-10T07:06:36.701Z,100.00
2023-03-10T07:09:05.742Z,100.00
2023-03-10T07:11:35.396Z,100.00
2023-03-10T07:14:03.900Z,100.00
2023-03-10T07:16:32.645Z,100.00
2023-03-10T07:19:01.202Z,100.00
2023-03-10T07:21:29.722Z,100.00
2023-03-10T07:23:58.962Z,100.00
2023-03-10T07:26:27.688Z,99.79
2023-03-10T07:28:57.326Z,100.00
2023-03-10T07:31:26.198Z,100.00
2023-03-10T07:33:54.804Z,99.18
2023-03-10T07:36:24.191Z,99.46
2023-03-10T07:38:52.571Z,99.13
2023-03-10T07:41:22.720Z,99.06
2023-03-10T07:43:54.880Z,98.30
2023-03-10T07:46:24.701Z,97.90
2023-03-10T07:48:53.845Z,97.52
2023-03-10T07:51:22.518Z,98.07
2023-03-10T07:53:51.086Z,98.57
2023-03-10T07:56:19.890Z,98.92
2023-03-10T07:58:48.402Z,99.26
2023-03-10T08:01:18.925Z,98.63
2023-03-10T08:03:49.295Z,98.90
2023-03-10T08:06:20.481Z,100.00
2023-03-10T08:08:49.026Z,100.00
2023-03-10T08:11:18.361Z,100.00
2023-03-10T08:13:47.576Z,100.00
2023-03-10T08:16:17.572Z,100.00
2023-03-10T08:18:47.844Z,100.00
2023-03-10T08:21:16.309Z,100.00
2023-03-10T08:23:44.985Z,100.00
2023-03-10T08:26:16.328Z,100.00
2023-03-10T08:28:45.401Z,100.00
2023-03-10T08:31:17.317Z,100.00
2023-03-10T08:33:46.968Z,100.00
2023-03-10T08:36:19.900Z,100.00
2023-03-10T08:38:49.406Z,100.00
2023-03-10T08:41:20.803Z,100.00
2023-03-10T08:43:50.369Z,100.00
2023-03-10T08:46:20.560Z,100.00
2023-03-10T08:48:49.672Z,100.00
2023-03-10T08:51:20.383Z,100.00
2023-03-10T08:53:50.356Z,100.00
2023-03-10T08:56:21.635Z,100.00
2023-03-10T08:58:50.586Z,100.00
2023-03-10T09:01:20.114Z,100.00
2023-03-10T09:03:48.358Z,100.00
2023-03-10T09:06:18.400Z,100.00
2023-03-10T09:08:48.254Z,100.00
2023-03-10T09:11:19.943Z,100.00
2023-03-10T09:13:49.215Z,100.00
2023-03-10T09:16:18.009Z,100.00
2023-03-10T09:18:46.542Z,100.00
2023-03-10T09:21:17.140Z,100.00
2023-03-10T09:23:50.084Z,100.00
2023-03-10T09:26:18.627Z,100.00
2023-03-10T09:28:49.304Z,100.00
2023-03-10T09:31:21.830Z,100.00
2023-03-10T09:33:50.425Z,100.00
2023-03-10T09:36:19.750Z,100.00
2023-03-10T09:38:49.461Z,100.00
2023-03-10T09:41:50.158Z,100.00
2023-03-10T09:44:32.217Z,100.00
2023-03-10T09:47:23.285Z,100.00
2023-03-10T09:50:10.111Z,100.00
2023-03-10T09:52:46.406Z,100.00
2023-03-10T09:55:25.689Z,100.00
2023-03-10T09:57:57.547Z,100.00
2023-03-10T10:00:31.304Z,100.00
2023-03-10T10:03:09.064Z,100.00
2023-03-10T10:05:39.401Z,100.00
2023-03-10T10:08:21.182Z,100.00
2023-03-10T10:10:54.892Z,100.00
2023-03-10T10:13:26.483Z,100.00
2023-03-10T10:16:21.448Z,100.00
2023-03-10T10:18:58.198Z,100.00
2023-03-10T10:21:42.569Z,100.00
2023-03-10T10:24:11.742Z,100.00
2023-03-10T10:26:41.320Z,100.00
2023-03-10T10:29:17.763Z,100.00
2023-03-10T10:32:07.684Z,100.00
2023-03-10T10:34:37.694Z,100.00
2023-03-10T10:37:29.341Z,100.00
2023-03-10T10:40:00.773Z,100.00
2023-03-10T10:42:32.632Z,100.00
2023-03-10T10:45:03.941Z,100.00
2023-03-10T10:47:35.318Z,100.00
2023-03-10T10:50:20.703Z,100.00
2023-03-10T10:52:53.152Z,100.00
2023-03-10T10:55:29.509Z,100.00
2023-03-10T10:58:02.774Z,100.00
2023-03-10T11:00:33.454Z,100.00
2023-03-10T11:03:02.378Z,100.00
2023-03-10T11:05:37.528Z,100.00
2023-03-10T11:08:22.344Z,100.00
2023-03-10T11:11:00.215Z,100.00
2023-03-10T11:13:40.317Z,100.00
2023-03-10T11:16:19.393Z,100.00
2023-03-10T11:18:53.778Z,100.00
2023-03-10T11:21:27.932Z,100.00
2023-03-10T11:24:09.225Z,100.00
2023-03-10T11:26:52.889Z,100.00
2023-03-10T11:29:39.545Z,100.00
2023-03-10T11:32:19.821Z,100.00
2023-03-10T11:34:53.874Z,100.00
2023-03-10T11:37:31.777Z,100.00
2023-03-10T11:40:19.723Z,100.00
2023-03-10T11:42:57.597Z,100.00
2023-03-10T11:45:35.842Z,100.00
2023-03-10T11:48:21.303Z,100.00
2023-03-10T11:50:53.778Z,100.00
2023-03-10T11:53:35.093Z,100.00
2023-03-10T11:56:05.177Z,100.00
2023-03-10T11:58:43.464Z,100.00
2023-03-10T12:01:18.175Z,100.00
2023-03-10T12:03:55.586Z,100.00
2023-03-10T12:06:33.042Z,100.00
2023-03-10T12:09:03.972Z,100.00
2023-03-10T12:11:32.510Z,100.00
2023-03-10T12:14:03.305Z,100.00
2023-03-10T12:16:39.461Z,100.00
2023-03-10T12:19:08.545Z,100.00
2023-03-10T12:21:37.047Z,100.00
2023-03-10T12:24:27.215Z,100.00
2023-03-10T12:27:16.279Z,100.00
2023-03-10T12:29:45.631Z,100.00
2023-03-10T12:32:47.282Z,100.00
2023-03-10T12:35:55.148Z,100.00
2023-03-10T12:38:44.233Z,100.00
2023-03-10T12:41:14.104Z,100.00
2023-03-10T12:44:03.895Z,100.00
2023-03-10T12:46:45.104Z,100.00
2023-03-10T12:49:27.316Z,100.00
2023-03-10T12:52:08.288Z,100.00
2023-03-10T12:54:53.450Z,100.00
2023-03-10T12:57:27.344Z,100.00
2023-03-10T13:00:06.738Z,100.00
2023-03-10T13:02:44.689Z,100.00
2023-03-10T13:05:25.909Z,100.00
2023-03-10T13:07:58.832Z,100.00
2023-03-10T13:10:31.150Z,100.00
2023-03-10T13:13:05.527Z,100.00
2023-03-10T13:15:35.477Z,100.00
2023-03-10T13:18:20.242Z,100.00
2023-03-10T13:20:50.986Z,100.00
2023-03-10T13:23:27.744Z,100.00
2023-03-10T13:25:58.303Z,100.00
2023-03-10T13:28:29.178Z,100.00
2023-03-10T13:31:20.565Z,100.00
2023-03-10T13:33:53.901Z,100.00
2023-03-10T13:36:38.123Z,100.00
2023-03-10T13:39:16.423Z,100.00
2023-03-10T13:41:48.300Z,100.00
2023-03-10T13:44:22.244Z,100.00
2023-03-10T13:46:53.966Z,100.00
2023-03-10T13:49:26.582Z,100.00
2023-03-10T13:51:58.375Z,100.00
2023-03-10T13:54:29.278Z,100.00
2023-03-10T13:57:03.323Z,100.00
2023-03-10T13:59:33.290Z,100.00
2023-03-10T14:02:03.047Z,100.00
2023-03-10T14:04:46.276Z,100.00
2023-03-10T14:07:19.352Z,100.00
2023-03-10T14:09:49.758Z,100.00
2023-03-10T14:12:37.427Z,100.00
2023-03-10T14:15:23.194Z,100.00
2023-03-10T14:17:53.774Z,100.00
2023-03-10T14:20:30.744Z,100.00
2023-03-10T14:23:01.056Z,100.00
2023-03-10T14:25:29.624Z,100.00
2023-03-10T14:27:59.925Z,100.00
2023-03-10T14:30:31.420Z,100.00
2023-03-10T14:33:01.924Z,100.00
2023-03-10T14:35:31.454Z,100.00
2023-03-10T14:38:01.028Z,100.00
2023-03-10T14:40:29.723Z,100.00
2023-03-10T14:43:02.449Z,100.00
2023-03-10T14:45:33.884Z,100.00
2023-03-10T14:48:05.922Z,100.00
2023-03-10T14:50:35.711Z,100.00
2023-03-10T14:53:10.197Z,100.00
2023-03-10T14:55:39.395Z,100.00
2023-03-10T14:58:08.894Z,100.00
2023-03-10T15:00:37.622Z,100.00
2023-03-10T15:03:06.478Z,100.00
2023-03-10T15:05:47.827Z,100.00
2023-03-10T15:08:19.581Z,100.00
2023-03-10T15:10:50.916Z,100.00
2023-03-10T15:13:20.696Z,100.00
2023-03-10T15:15:50.118Z,100.00
2023-03-10T15:18:21.563Z,100.00
2023-03-10T15:20:50.587Z,100.00
2023-03-10T15:23:22.299Z,100.00
2023-03-10T15:25:51.901Z,100.00
2023-03-10T15:28:20.108Z,100.00
2023-03-10T15:30:49.109Z,100.00
2023-03-10T15:33:17.778Z,100.00
2023-03-10T15:35:47.066Z,100.00
2023-03-10T15:38:16.340Z,100.00
2023-03-10T15:40:46.060Z,100.00
2023-03-10T15:43:14.712Z,100.00
2023-03-10T15:45:46.621Z,100.00
2023-03-10T15:48:15.160Z,100.00
2023-03-10T15:50:43.850Z,100.00
2023-03-10T15:53:12.457Z,100.00
2023-03-10T15:55:42.116Z,100.00
2023-03-10T15:58:12.998Z,100.00
2023-03-10T16:00:43.744Z,100.00
2023-03-10T16:03:17.718Z,99.64
2023-03-10T16:05:50.300Z,99.94
2023-03-10T16:08:19.665Z,100.00
2023-03-10T16:10:54.501Z,100.00
2023-03-10T16:13:24.918Z,99.33
2023-03-10T16:15:53.653Z,100.00
2023-03-10T16:18:22.387Z,99.68
2023-03-10T16:20:58.478Z,99.90
2023-03-10T16:23:27.438Z,99.56
2023-03-10T16:26:12.460Z,98.73
2023-03-10T16:28:44.446Z,100.00
2023-03-10T16:31:15.758Z,97.66
2023-03-10T16:33:44.482Z,97.04
2023-03-10T16:36:15.912Z,96.51
2023-03-10T16:38:45.249Z,97.12
2023-03-10T16:41:14.334Z,97.14
2023-03-10T16:43:44.622Z,97.91
2023-03-10T16:46:17.138Z,97.75
2023-03-10T16:48:49.267Z,97.73
2023-03-10T16:51:26.017Z,97.18
2023-03-10T16:53:57.201Z,96.32
2023-03-10T16:56:26.736Z,97.25
2023-03-10T16:58:57.616Z,96.12
2023-03-10T17:01:26.199Z,95.78
2023-03-10T17:03:55.520Z,95.10
2023-03-10T17:06:27.103Z,96.20
2023-03-10T17:08:56.473Z,96.82
2023-03-10T17:11:27.398Z,96.91
2023-03-10T17:13:59.731Z,96.78
2023-03-10T17:16:31.203Z,97.25
2023-03-10T17:19:01.867Z,97.34
2023-03-10T17:21:33.283Z,97.71
2023-03-10T17:24:02.055Z,98.71
2023-03-10T17:26:31.922Z,99.05
2023-03-10T17:29:01.552Z,99.60
2023-03-10T17:31:30.544Z,99.55
2023-03-10T17:34:01.900Z,99.20
2023-03-10T17:36:30.552Z,100.00
2023-03-10T17:39:01.260Z,100.00
2023-03-10T17:41:31.400Z,99.10
2023-03-10T17:44:01.271Z,99.08
2023-03-10T17:46:31.567Z,98.87
2023-03-10T17:49:00.536Z,99.28
2023-03-10T17:51:31.622Z,99.51
2023-03-10T17:54:02.361Z,98.13
2023-03-10T17:56:30.965Z,98.07
2023-03-10T17:59:00.967Z,98.17
2023-03-10T18:01:31.372Z,98.10
2023-03-10T18:04:01.854Z,97.88
2023-03-10T18:06:33.121Z,98.04
2023-03-10T18:09:05.616Z,98.14
2023-03-10T18:11:35.224Z,98.01
2023-03-10T18:14:05.275Z,99.11
2023-03-10T18:16:36.126Z,98.72
2023-03-10T18:19:05.119Z,98.69
2023-03-10T18:21:33.378Z,98.11
2023-03-10T18:24:01.960Z,98.18
2023-03-10T18:26:31.382Z,98.66
2023-03-10T18:29:00.445Z,98.01
2023-03-10T18:31:34.442Z,98.78
2023-03-10T18:34:03.366Z,98.18
2023-03-10T18:36:32.896Z,97.84
2023-03-10T18:39:03.874Z,98.37
2023-03-10T18:41:32.787Z,100.00
2023-03-10T18:44:01.589Z,100.00
2023-03-10T18:46:31.459Z,100.00
2023-03-10T18:49:00.017Z,100.00
2023-03-10T18:51:29.548Z,100.00
2023-03-10T18:53:58.189Z,99.84
2023-03-10T18:56:28.878Z,98.25
2023-03-10T18:58:57.651Z,97.24
2023-03-10T19:01:26.812Z,96.02
2023-03-10T19:03:56.667Z,96.63
2023-03-10T19:06:30.048Z,96.77
2023-03-10T19:08:58.643Z,97.65
2023-03-10T19:11:27.763Z,96.89
2023-03-10T19:13:56.426Z,96.72
2023-03-10T19:16:25.009Z,95.76
2023-03-10T19:18:54.064Z,94.41
2023-03-10T19:21:24.186Z,94.49
2023-03-10T19:23:52.741Z,94.67
2023-03-10T19:26:21.210Z,95.88
2023-03-10T19:28:49.519Z,95.25
2023-03-10T19:31:18.333Z,95.37
2023-03-10T19:33:46.712Z,94.47
2023-03-10T19:36:16.487Z,94.04
2023-03-10T19:38:46.498Z,95.46
2023-03-10T19:41:17.278Z,94.58
2023-03-10T19:43:47.211Z,94.06
2023-03-10T19:46:16.612Z,94.51
2023-03-10T19:48:45.574Z,94.96
2023-03-10T19:51:21.965Z,94.26
2023-03-10T19:53:52.929Z,94.79
2023-03-10T19:56:22.806Z,95.40
2023-03-10T19:58:51.668Z,94.37
2023-03-10T20:01:24.220Z,96.44
2023-03-10T20:03:54.268Z,94.90
2023-03-10T20:06:23.188Z,94.07
2023-03-10T20:08:54.432Z,93.70
2023-03-10T20:11:23.806Z,95.57
2023-03-10T20:13:54.640Z,96.14
2023-03-10T20:16:24.174Z,96.10
2023-03-10T20:18:53.075Z,97.76
2023-03-10T20:21:21.886Z,97.05
2023-03-10T20:23:52.133Z,96.23
2023-03-10T20:26:20.779Z,96.73
2023-03-10T20:28:50.590Z,97.52
2023-03-10T20:31:21.402Z,98.59
2023-03-10T20:33:50.212Z,98.42
2023-03-10T20:36:19.294Z,97.16
2023-03-10T20:38:48.381Z,97.18
2023-03-10T20:41:19.695Z,97.34
2023-03-10T20:43:48.325Z,97.37
2023-03-10T20:46:19.280Z,97.39
2023-03-10T20:48:50.635Z,98.53
2023-03-10T20:51:19.519Z,97.06
2023-03-10T20:53:48.065Z,97.85
2023-03-10T20:56:19.057Z,98.06
2023-03-10T20:58:47.648Z,98.08
2023-03-10T21:01:17.464Z,98.03
2023-03-10T21:03:46.098Z,98.58
2023-03-10T21:06:14.639Z,98.57
2023-03-10T21:08:43.158Z,97.87
2023-03-10T21:11:11.827Z,97.21
2023-03-10T21:13:41.750Z,96.71
2023-03-10T21:16:10.414Z,96.89
2023-03-10T21:18:39.157Z,97.56
2023-03-10T21:21:09.508Z,97.64
2023-03-10T21:23:43.490Z,97.72
2023-03-10T21:26:13.574Z,97.10
2023-03-10T21:28:43.494Z,97.31
2023-03-10T21:31:12.636Z,98.30
2023-03-10T21:33:42.620Z,98.72
2023-03-10T21:36:15.299Z,99.79
2023-03-10T21:38:44.269Z,99.80
2023-03-10T21:41:15.362Z,100.00
2023-03-10T21:43:45.034Z,99.61
2023-03-10T21:46:13.810Z,100.00
2023-03-10T21:48:42.853Z,100.00
2023-03-10T21:51:14.182Z,99.86
2023-03-10T21:53:42.910Z,100.00
2023-03-10T21:56:11.885Z,99.59
2023-03-10T21:58:40.499Z,99.31
2023-03-10T22:01:10.256Z,99.84
2023-03-10T22:03:38.525Z,100.00
2023-03-10T22:06:07.300Z,99.85
2023-03-10T22:08:37.748Z,100.00
2023-03-10T22:11:08.397Z,100.00
2023-03-10T22:13:38.645Z,100.00
2023-03-10T22:16:10.588Z,100.00
2023-03-10T22:18:39.222Z,100.00
2023-03-10T22:21:08.989Z,99.86
2023-03-10T22:23:37.521Z,100.00
2023-03-10T22:26:06.066Z,100.00
2023-03-10T22:28:34.678Z,100.00
2023-03-10T22:31:06.001Z,100.00
2023-03-10T22:33:37.933Z,100.00
2023-03-10T22:36:08.729Z,100.00
2023-03-10T22:38:37.282Z,100.00
2023-03-10T22:41:11.737Z,100.00
2023-03-10T22:43:39.965Z,100.00
2023-03-10T22:46:11.509Z,100.00
2023-03-10T22:48:42.134Z,100.00
2023-03-10T22:51:14.599Z,100.00
2023-03-10T22:53:42.874Z,100.00
2023-03-10T22:56:11.356Z,100.00
2023-03-10T22:58:39.914Z,100.00
2023-03-10T23:01:08.477Z,100.00
2023-03-10T23:03:37.327Z,100.00
2023-03-10T23:06:08.032Z,100.00
2023-03-10T23:08:37.510Z,100.00
2023-03-10T23:11:10.894Z,100.00
2023-03-10T23:13:39.665Z,99.08
2023-03-10T23:16:09.455Z,98.34
2023-03-10T23:18:38.378Z,96.96
2023-03-10T23:21:08.563Z,97.08
2023-03-10T23:23:39.174Z,97.63
2023-03-10T23:26:07.896Z,97.86
2023-03-10T23:28:36.471Z,97.29
2023-03-10T23:31:05.498Z,97.58
2023-03-10T23:33:34.217Z,97.49
2023-03-10T23:36:02.742Z,97.03
2023-03-10T23:38:32.636Z,97.28
2023-03-10T23:41:01.256Z,97.40
2023-03-10T23:43:29.827Z,98.43
2023-03-10T23:45:58.474Z,97.97
2023-03-10T23:48:27.167Z,96.71
2023-03-10T23:50:55.774Z,95.28
2023-03-10T23:53:24.496Z,96.47
2023-03-10T23:55:56.748Z,96.65
2023-03-10T23:58:25.769Z,96.21
